sensor_id;sensor_type;location;lat;lon;timestamp;P1;durP1;ratioP1;P2;durP2;ratioP2
76566;SDS011;65428;53.194;6.132;2022-12-07T00:01:16;5.60;;;0.30;;
76566;SDS011;65428;53.194;6.132;2022-12-07T00:03:43;8.68;;;0.60;;
76566;SDS011;65428;53.194;6.132;2022-12-07T00:06:11;6.63;;;0.43;;
76566;SDS011;65428;53.194;6.132;2022-12-07T00:08:38;7.90;;;0.85;;
76566;SDS011;65428;53.194;6.132;2022-12-07T00:11:05;6.93;;;0.40;;
76566;SDS011;65428;53.194;6.132;2022-12-07T00:13:38;7.80;;;0.70;;
76566;SDS011;65428;53.194;6.132;2022-12-07T00:16:05;7.45;;;0.60;;
76566;SDS011;65428;53.194;6.132;2022-12-07T00:18:31;8.18;;;0.40;;
76566;SDS011;65428;53.194;6.132;2022-12-07T00:21:04;6.68;;;0.38;;
76566;SDS011;65428;53.194;6.132;2022-12-07T00:23:50;5.60;;;0.60;;
76566;SDS011;65428;53.194;6.132;2022-12-07T00:26:19;9.40;;;0.80;;
76566;SDS011;65428;53.194;6.132;2022-12-07T00:28:57;8.60;;;0.70;;
76566;SDS011;65428;53.194;6.132;2022-12-07T00:31:27;5.28;;;0.30;;
76566;SDS011;65428;53.194;6.132;2022-12-07T00:33:56;10.27;;;0.60;;
76566;SDS011;65428;53.194;6.132;2022-12-07T00:36:23;5.50;;;0.25;;
76566;SDS011;65428;53.194;6.132;2022-12-07T00:38:50;7.80;;;0.70;;
76566;SDS011;65428;53.194;6.132;2022-12-07T00:41:17;7.40;;;0.40;;
76566;SDS011;65428;53.194;6.132;2022-12-07T00:43:47;6.90;;;0.40;;
76566;SDS011;65428;53.194;6.132;2022-12-07T00:46:14;10.10;;;0.60;;
76566;SDS011;65428;53.194;6.132;2022-12-07T00:48:40;8.88;;;0.60;;
76566;SDS011;65428;53.194;6.132;2022-12-07T00:51:06;10.90;;;0.80;;
76566;SDS011;65428;53.194;6.132;2022-12-07T00:53:36;8.52;;;0.52;;
76566;SDS011;65428;53.194;6.132;2022-12-07T00:56:09;7.25;;;0.40;;
76566;SDS011;65428;53.194;6.132;2022-12-07T00:58:37;8.32;;;0.50;;
76566;SDS011;65428;53.194;6.132;2022-12-07T01:01:03;8.35;;;0.60;;
76566;SDS011;65428;53.194;6.132;2022-12-07T01:03:30;15.57;;;0.80;;
76566;SDS011;65428;53.194;6.132;2022-12-07T01:05:56;10.52;;;0.80;;
76566;SDS011;65428;53.194;6.132;2022-12-07T01:08:22;12.68;;;0.95;;
76566;SDS011;65428;53.194;6.132;2022-12-07T01:10:49;9.48;;;0.65;;
76566;SDS011;65428;53.194;6.132;2022-12-07T01:13:15;7.95;;;0.73;;
76566;SDS011;65428;53.194;6.132;2022-12-07T01:15:41;11.38;;;1.17;;
76566;SDS011;65428;53.194;6.132;2022-12-07T01:18:07;7.32;;;0.55;;
76566;SDS011;65428;53.194;6.132;2022-12-07T01:20:33;9.52;;;0.70;;
76566;SDS011;65428;53.194;6.132;2022-12-07T01:22:59;8.50;;;0.40;;
76566;SDS011;65428;53.194;6.132;2022-12-07T01:25:25;9.97;;;0.80;;
76566;SDS011;65428;53.194;6.132;2022-12-07T01:27:51;7.85;;;0.30;;
76566;SDS011;65428;53.194;6.132;2022-12-07T01:30:16;8.97;;;0.30;;
76566;SDS011;65428;53.194;6.132;2022-12-07T01:32:42;10.50;;;0.40;;
76566;SDS011;65428;53.194;6.132;2022-12-07T01:35:08;7.22;;;0.50;;
76566;SDS011;65428;53.194;6.132;2022-12-07T01:37:37;11.73;;;0.50;;
76566;SDS011;65428;53.194;6.132;2022-12-07T01:40:05;8.07;;;0.40;;
76566;SDS011;65428;53.194;6.132;2022-12-07T01:42:31;9.77;;;0.47;;
76566;SDS011;65428;53.194;6.132;2022-12-07T01:47:51;9.45;;;0.68;;
76566;SDS011;65428;53.194;6.132;2022-12-07T01:50:20;12.35;;;0.40;;
76566;SDS011;65428;53.194;6.132;2022-12-07T01:52:49;7.57;;;0.50;;
76566;SDS011;65428;53.194;6.132;2022-12-07T01:55:18;7.20;;;0.30;;
76566;SDS011;65428;53.194;6.132;2022-12-07T01:57:46;11.23;;;0.77;;
76566;SDS011;65428;53.194;6.132;2022-12-07T02:00:14;5.97;;;0.40;;
76566;SDS011;65428;53.194;6.132;2022-12-07T02:02:47;8.20;;;0.50;;
76566;SDS011;65428;53.194;6.132;2022-12-07T02:05:17;9.38;;;0.57;;
76566;SDS011;65428;53.194;6.132;2022-12-07T02:07:43;9.38;;;0.30;;
76566;SDS011;65428;53.194;6.132;2022-12-07T02:10:12;9.50;;;0.63;;
76566;SDS011;65428;53.194;6.132;2022-12-07T02:12:43;8.15;;;0.47;;
76566;SDS011;65428;53.194;6.132;2022-12-07T02:15:11;11.15;;;0.98;;
76566;SDS011;65428;53.194;6.132;2022-12-07T02:20:37;9.18;;;0.50;;
76566;SDS011;65428;53.194;6.132;2022-12-07T02:23:32;7.53;;;0.30;;
76566;SDS011;65428;53.194;6.132;2022-12-07T02:26:43;9.65;;;0.60;;
76566;SDS011;65428;53.194;6.132;2022-12-07T02:29:27;8.80;;;0.40;;
76566;SDS011;65428;53.194;6.132;2022-12-07T02:39:59;14.45;;;0.90;;
76566;SDS011;65428;53.194;6.132;2022-12-07T02:42:36;9.77;;;0.60;;
76566;SDS011;65428;53.194;6.132;2022-12-07T02:45:07;8.43;;;0.68;;
76566;SDS011;65428;53.194;6.132;2022-12-07T02:47:35;8.95;;;0.70;;
76566;SDS011;65428;53.194;6.132;2022-12-07T02:50:03;11.52;;;0.63;;
76566;SDS011;65428;53.194;6.132;2022-12-07T02:52:30;10.13;;;0.85;;
76566;SDS011;65428;53.194;6.132;2022-12-07T02:54:55;9.13;;;0.70;;
76566;SDS011;65428;53.194;6.132;2022-12-07T03:00:11;12.03;;;0.50;;
76566;SDS011;65428;53.194;6.132;2022-12-07T03:10:45;8.13;;;0.60;;
76566;SDS011;65428;53.194;6.132;2022-12-07T03:16:25;12.13;;;0.90;;
76566;SDS011;65428;53.194;6.132;2022-12-07T03:18:56;8.88;;;0.65;;
76566;SDS011;65428;53.194;6.132;2022-12-07T03:21:31;12.48;;;0.68;;
76566;SDS011;65428;53.194;6.132;2022-12-07T03:24:03;7.85;;;0.43;;
76566;SDS011;65428;53.194;6.132;2022-12-07T03:26:43;13.30;;;0.70;;
76566;SDS011;65428;53.194;6.132;2022-12-07T03:29:17;13.30;;;0.70;;
76566;SDS011;65428;53.194;6.132;2022-12-07T03:31:54;10.00;;;0.50;;
76566;SDS011;65428;53.194;6.132;2022-12-07T03:34:46;9.27;;;0.60;;
76566;SDS011;65428;53.194;6.132;2022-12-07T03:37:38;8.35;;;0.35;;
76566;SDS011;65428;53.194;6.132;2022-12-07T03:40:12;8.88;;;0.47;;
76566;SDS011;65428;53.194;6.132;2022-12-07T03:42:43;11.98;;;0.70;;
76566;SDS011;65428;53.194;6.132;2022-12-07T03:45:09;12.23;;;0.93;;
76566;SDS011;65428;53.194;6.132;2022-12-07T03:48:00;10.32;;;0.85;;
76566;SDS011;65428;53.194;6.132;2022-12-07T03:50:51;8.60;;;0.90;;
76566;SDS011;65428;53.194;6.132;2022-12-07T03:53:39;11.68;;;0.70;;
76566;SDS011;65428;53.194;6.132;2022-12-07T03:56:11;11.82;;;0.60;;
76566;SDS011;65428;53.194;6.132;2022-12-07T03:58:37;10.73;;;0.87;;
76566;SDS011;65428;53.194;6.132;2022-12-07T04:01:04;7.60;;;0.50;;
76566;SDS011;65428;53.194;6.132;2022-12-07T04:03:30;10.07;;;0.60;;
76566;SDS011;65428;53.194;6.132;2022-12-07T04:05:56;10.63;;;0.60;;
76566;SDS011;65428;53.194;6.132;2022-12-07T04:08:23;12.07;;;0.60;;
76566;SDS011;65428;53.194;6.132;2022-12-07T04:10:49;12.03;;;0.60;;
76566;SDS011;65428;53.194;6.132;2022-12-07T04:13:14;11.00;;;0.50;;
76566;SDS011;65428;53.194;6.132;2022-12-07T04:15:40;8.43;;;0.63;;
76566;SDS011;65428;53.194;6.132;2022-12-07T04:18:05;9.50;;;0.50;;
76566;SDS011;65428;53.194;6.132;2022-12-07T04:20:31;11.00;;;0.60;;
76566;SDS011;65428;53.194;6.132;2022-12-07T04:22:57;9.00;;;0.40;;
76566;SDS011;65428;53.194;6.132;2022-12-07T04:25:22;8.23;;;0.70;;
76566;SDS011;65428;53.194;6.132;2022-12-07T04:27:48;8.27;;;0.57;;
76566;SDS011;65428;53.194;6.132;2022-12-07T04:30:14;8.82;;;0.40;;
76566;SDS011;65428;53.194;6.132;2022-12-07T04:32:39;8.95;;;0.52;;
76566;SDS011;65428;53.194;6.132;2022-12-07T04:35:05;10.00;;;0.60;;
76566;SDS011;65428;53.194;6.132;2022-12-07T04:37:31;12.82;;;0.80;;
76566;SDS011;65428;53.194;6.132;2022-12-07T04:39:57;11.10;;;0.52;;
76566;SDS011;65428;53.194;6.132;2022-12-07T04:42:23;8.57;;;0.50;;
76566;SDS011;65428;53.194;6.132;2022-12-07T04:44:48;8.38;;;0.55;;
76566;SDS011;65428;53.194;6.132;2022-12-07T04:47:14;10.30;;;0.50;;
76566;SDS011;65428;53.194;6.132;2022-12-07T04:49:40;9.07;;;0.50;;
76566;SDS011;65428;53.194;6.132;2022-12-07T04:52:05;11.10;;;0.47;;
76566;SDS011;65428;53.194;6.132;2022-12-07T04:54:31;9.05;;;0.45;;
76566;SDS011;65428;53.194;6.132;2022-12-07T04:56:56;9.03;;;0.57;;
76566;SDS011;65428;53.194;6.132;2022-12-07T04:59:22;11.77;;;0.70;;
76566;SDS011;65428;53.194;6.132;2022-12-07T05:01:48;10.00;;;0.70;;
76566;SDS011;65428;53.194;6.132;2022-12-07T05:04:14;10.00;;;0.50;;
76566;SDS011;65428;53.194;6.132;2022-12-07T05:06:41;8.80;;;0.50;;
76566;SDS011;65428;53.194;6.132;2022-12-07T05:09:06;12.77;;;0.60;;
76566;SDS011;65428;53.194;6.132;2022-12-07T05:11:32;10.75;;;0.80;;
76566;SDS011;65428;53.194;6.132;2022-12-07T05:14:25;11.70;;;0.75;;
76566;SDS011;65428;53.194;6.132;2022-12-07T05:16:50;8.05;;;0.50;;
76566;SDS011;65428;53.194;6.132;2022-12-07T05:19:16;11.18;;;0.70;;
76566;SDS011;65428;53.194;6.132;2022-12-07T05:21:42;9.73;;;0.70;;
76566;SDS011;65428;53.194;6.132;2022-12-07T05:24:10;11.27;;;1.05;;
76566;SDS011;65428;53.194;6.132;2022-12-07T05:26:37;12.52;;;0.60;;
76566;SDS011;65428;53.194;6.132;2022-12-07T05:29:02;13.73;;;1.03;;
76566;SDS011;65428;53.194;6.132;2022-12-07T05:31:28;10.17;;;0.70;;
76566;SDS011;65428;53.194;6.132;2022-12-07T05:33:54;10.60;;;0.90;;
76566;SDS011;65428;53.194;6.132;2022-12-07T05:36:22;10.65;;;0.90;;
76566;SDS011;65428;53.194;6.132;2022-12-07T05:38:48;12.35;;;0.93;;
76566;SDS011;65428;53.194;6.132;2022-12-07T05:41:14;14.23;;;1.17;;
76566;SDS011;65428;53.194;6.132;2022-12-07T05:44:01;11.83;;;0.80;;
76566;SDS011;65428;53.194;6.132;2022-12-07T05:46:27;9.80;;;0.50;;
76566;SDS011;65428;53.194;6.132;2022-12-07T05:48:52;10.60;;;0.68;;
76566;SDS011;65428;53.194;6.132;2022-12-07T05:51:18;11.27;;;1.20;;
76566;SDS011;65428;53.194;6.132;2022-12-07T05:53:44;10.50;;;0.67;;
76566;SDS011;65428;53.194;6.132;2022-12-07T05:56:10;10.73;;;0.70;;
76566;SDS011;65428;53.194;6.132;2022-12-07T05:58:35;14.63;;;0.70;;
76566;SDS011;65428;53.194;6.132;2022-12-07T06:01:19;12.57;;;0.90;;
76566;SDS011;65428;53.194;6.132;2022-12-07T06:03:45;12.77;;;1.10;;
76566;SDS011;65428;53.194;6.132;2022-12-07T06:06:10;11.48;;;0.85;;
76566;SDS011;65428;53.194;6.132;2022-12-07T06:08:36;13.90;;;0.83;;
76566;SDS011;65428;53.194;6.132;2022-12-07T06:11:02;12.37;;;0.70;;
76566;SDS011;65428;53.194;6.132;2022-12-07T06:13:46;11.05;;;0.85;;
76566;SDS011;65428;53.194;6.132;2022-12-07T06:16:12;9.57;;;0.80;;
76566;SDS011;65428;53.194;6.132;2022-12-07T06:18:37;12.27;;;1.10;;
76566;SDS011;65428;53.194;6.132;2022-12-07T06:21:03;12.40;;;1.20;;
76566;SDS011;65428;53.194;6.132;2022-12-07T06:23:29;13.57;;;1.10;;
76566;SDS011;65428;53.194;6.132;2022-12-07T06:25:54;10.63;;;0.90;;
76566;SDS011;65428;53.194;6.132;2022-12-07T06:28:20;13.43;;;0.93;;
76566;SDS011;65428;53.194;6.132;2022-12-07T06:30:45;9.25;;;1.02;;
76566;SDS011;65428;53.194;6.132;2022-12-07T06:33:11;11.20;;;0.80;;
76566;SDS011;65428;53.194;6.132;2022-12-07T06:35:37;10.95;;;1.10;;
76566;SDS011;65428;53.194;6.132;2022-12-07T06:38:02;7.60;;;0.70;;
76566;SDS011;65428;53.194;6.132;2022-12-07T06:40:28;13.75;;;0.80;;
76566;SDS011;65428;53.194;6.132;2022-12-07T06:42:54;12.60;;;0.87;;
76566;SDS011;65428;53.194;6.132;2022-12-07T06:45:19;14.80;;;1.30;;
76566;SDS011;65428;53.194;6.132;2022-12-07T06:47:45;11.65;;;0.90;;
76566;SDS011;65428;53.194;6.132;2022-12-07T06:50:10;12.57;;;1.23;;
76566;SDS011;65428;53.194;6.132;2022-12-07T06:52:36;9.97;;;0.87;;
76566;SDS011;65428;53.194;6.132;2022-12-07T06:55:02;13.38;;;1.10;;
76566;SDS011;65428;53.194;6.132;2022-12-07T06:57:27;11.10;;;1.30;;
76566;SDS011;65428;53.194;6.132;2022-12-07T06:59:53;9.80;;;1.00;;
76566;SDS011;65428;53.194;6.132;2022-12-07T07:02:18;13.88;;;1.00;;
76566;SDS011;65428;53.194;6.132;2022-12-07T07:04:44;14.93;;;1.17;;
76566;SDS011;65428;53.194;6.132;2022-12-07T07:07:10;11.40;;;1.00;;
76566;SDS011;65428;53.194;6.132;2022-12-07T07:09:35;15.73;;;1.45;;
76566;SDS011;65428;53.194;6.132;2022-12-07T07:12:01;15.00;;;1.45;;
76566;SDS011;65428;53.194;6.132;2022-12-07T07:14:27;12.80;;;1.10;;
76566;SDS011;65428;53.194;6.132;2022-12-07T07:16:52;12.33;;;1.10;;
76566;SDS011;65428;53.194;6.132;2022-12-07T07:19:18;14.00;;;1.40;;
76566;SDS011;65428;53.194;6.132;2022-12-07T07:21:43;10.48;;;0.88;;
76566;SDS011;65428;53.194;6.132;2022-12-07T07:24:12;12.10;;;0.95;;
76566;SDS011;65428;53.194;6.132;2022-12-07T07:26:37;8.68;;;0.80;;
76566;SDS011;65428;53.194;6.132;2022-12-07T07:29:03;14.43;;;1.40;;
76566;SDS011;65428;53.194;6.132;2022-12-07T07:31:29;11.57;;;0.90;;
76566;SDS011;65428;53.194;6.132;2022-12-07T07:33:54;10.15;;;1.00;;
76566;SDS011;65428;53.194;6.132;2022-12-07T07:36:20;11.90;;;0.97;;
76566;SDS011;65428;53.194;6.132;2022-12-07T07:38:45;14.30;;;1.43;;
76566;SDS011;65428;53.194;6.132;2022-12-07T07:41:11;17.13;;;1.23;;
76566;SDS011;65428;53.194;6.132;2022-12-07T07:43:37;12.25;;;0.98;;
76566;SDS011;65428;53.194;6.132;2022-12-07T07:46:02;12.47;;;1.20;;
76566;SDS011;65428;53.194;6.132;2022-12-07T07:48:28;13.87;;;1.17;;
76566;SDS011;65428;53.194;6.132;2022-12-07T07:50:54;10.18;;;0.88;;
76566;SDS011;65428;53.194;6.132;2022-12-07T07:53:19;13.65;;;1.15;;
76566;SDS011;65428;53.194;6.132;2022-12-07T07:55:54;11.50;;;1.33;;
76566;SDS011;65428;53.194;6.132;2022-12-07T07:58:20;9.93;;;1.50;;
76566;SDS011;65428;53.194;6.132;2022-12-07T08:00:46;15.73;;;1.65;;
76566;SDS011;65428;53.194;6.132;2022-12-07T08:03:12;10.87;;;1.30;;
76566;SDS011;65428;53.194;6.132;2022-12-07T08:05:37;15.57;;;1.13;;
76566;SDS011;65428;53.194;6.132;2022-12-07T08:08:03;14.10;;;1.30;;
76566;SDS011;65428;53.194;6.132;2022-12-07T08:10:29;14.32;;;1.10;;
76566;SDS011;65428;53.194;6.132;2022-12-07T08:12:57;12.27;;;1.40;;
76566;SDS011;65428;53.194;6.132;2022-12-07T08:15:45;13.32;;;1.10;;
76566;SDS011;65428;53.194;6.132;2022-12-07T08:18:12;12.88;;;1.30;;
76566;SDS011;65428;53.194;6.132;2022-12-07T08:20:38;15.00;;;3.20;;
76566;SDS011;65428;53.194;6.132;2022-12-07T08:23:05;16.13;;;2.63;;
76566;SDS011;65428;53.194;6.132;2022-12-07T08:25:32;11.93;;;2.53;;
76566;SDS011;65428;53.194;6.132;2022-12-07T08:27:58;13.70;;;2.20;;
76566;SDS011;65428;53.194;6.132;2022-12-07T08:30:25;13.23;;;1.50;;
76566;SDS011;65428;53.194;6.132;2022-12-07T08:32:51;11.23;;;1.40;;
76566;SDS011;65428;53.194;6.132;2022-12-07T08:35:17;12.75;;;1.65;;
76566;SDS011;65428;53.194;6.132;2022-12-07T08:37:43;13.40;;;1.40;;
76566;SDS011;65428;53.194;6.132;2022-12-07T08:40:09;11.77;;;1.30;;
76566;SDS011;65428;53.194;6.132;2022-12-07T08:42:40;11.02;;;1.08;;
76566;SDS011;65428;53.194;6.132;2022-12-07T08:45:11;14.05;;;1.75;;
76566;SDS011;65428;53.194;6.132;2022-12-07T08:48:01;11.75;;;1.02;;
76566;SDS011;65428;53.194;6.132;2022-12-07T08:50:27;9.57;;;0.82;;
76566;SDS011;65428;53.194;6.132;2022-12-07T08:52:54;8.00;;;0.85;;
76566;SDS011;65428;53.194;6.132;2022-12-07T08:55:21;7.10;;;0.93;;
76566;SDS011;65428;53.194;6.132;2022-12-07T08:57:48;7.63;;;0.50;;
76566;SDS011;65428;53.194;6.132;2022-12-07T09:00:14;7.57;;;0.50;;
76566;SDS011;65428;53.194;6.132;2022-12-07T09:02:41;8.63;;;0.60;;
76566;SDS011;65428;53.194;6.132;2022-12-07T09:05:08;8.20;;;0.75;;
76566;SDS011;65428;53.194;6.132;2022-12-07T09:07:34;8.73;;;0.70;;
76566;SDS011;65428;53.194;6.132;2022-12-07T09:10:02;8.38;;;0.50;;
76566;SDS011;65428;53.194;6.132;2022-12-07T09:12:29;7.78;;;0.45;;
76566;SDS011;65428;53.194;6.132;2022-12-07T09:14:55;7.78;;;0.90;;
76566;SDS011;65428;53.194;6.132;2022-12-07T09:17:20;8.38;;;0.57;;
76566;SDS011;65428;53.194;6.132;2022-12-07T09:19:46;8.25;;;0.70;;
76566;SDS011;65428;53.194;6.132;2022-12-07T09:22:12;10.57;;;0.73;;
76566;SDS011;65428;53.194;6.132;2022-12-07T09:24:37;9.27;;;0.50;;
76566;SDS011;65428;53.194;6.132;2022-12-07T09:27:03;9.43;;;0.73;;
76566;SDS011;65428;53.194;6.132;2022-12-07T09:29:29;11.80;;;0.90;;
76566;SDS011;65428;53.194;6.132;2022-12-07T09:31:55;9.32;;;0.70;;
76566;SDS011;65428;53.194;6.132;2022-12-07T09:34:20;11.13;;;0.60;;
76566;SDS011;65428;53.194;6.132;2022-12-07T09:36:46;7.30;;;0.60;;
76566;SDS011;65428;53.194;6.132;2022-12-07T09:39:12;6.57;;;0.43;;
76566;SDS011;65428;53.194;6.132;2022-12-07T09:41:41;9.70;;;1.00;;
76566;SDS011;65428;53.194;6.132;2022-12-07T09:44:13;6.80;;;0.55;;
76566;SDS011;65428;53.194;6.132;2022-12-07T09:46:42;6.88;;;0.70;;
76566;SDS011;65428;53.194;6.132;2022-12-07T09:49:11;8.75;;;0.70;;
76566;SDS011;65428;53.194;6.132;2022-12-07T09:51:40;7.65;;;0.75;;
76566;SDS011;65428;53.194;6.132;2022-12-07T09:54:07;9.73;;;0.70;;
76566;SDS011;65428;53.194;6.132;2022-12-07T09:56:37;9.25;;;0.50;;
76566;SDS011;65428;53.194;6.132;2022-12-07T09:59:03;9.10;;;0.90;;
76566;SDS011;65428;53.194;6.132;2022-12-07T10:01:29;9.40;;;0.90;;
76566;SDS011;65428;53.194;6.132;2022-12-07T10:04:10;9.18;;;0.60;;
76566;SDS011;65428;53.194;6.132;2022-12-07T10:06:41;7.38;;;0.50;;
76566;SDS011;65428;53.194;6.132;2022-12-07T10:09:10;9.37;;;0.90;;
76566;SDS011;65428;53.194;6.132;2022-12-07T10:14:22;11.38;;;0.93;;
76566;SDS011;65428;53.194;6.132;2022-12-07T10:16:48;7.30;;;0.60;;
76566;SDS011;65428;53.194;6.132;2022-12-07T10:19:23;9.37;;;0.70;;
76566;SDS011;65428;53.194;6.132;2022-12-07T10:22:05;9.17;;;0.90;;
76566;SDS011;65428;53.194;6.132;2022-12-07T10:24:41;9.15;;;0.85;;
76566;SDS011;65428;53.194;6.132;2022-12-07T10:27:31;12.70;;;1.00;;
76566;SDS011;65428;53.194;6.132;2022-12-07T10:30:00;8.82;;;0.95;;
76566;SDS011;65428;53.194;6.132;2022-12-07T10:32:33;7.35;;;0.60;;
76566;SDS011;65428;53.194;6.132;2022-12-07T10:37:46;6.65;;;0.40;;
76566;SDS011;65428;53.194;6.132;2022-12-07T10:43:08;4.15;;;0.22;;
76566;SDS011;65428;53.194;6.132;2022-12-07T11:01:43;1.60;;;0.10;;
76566;SDS011;65428;53.194;6.132;2022-12-07T11:09:54;2.65;;;0.20;;
76566;SDS011;65428;53.194;6.132;2022-12-07T11:32:31;4.13;;;0.30;;
76566;SDS011;65428;53.194;6.132;2022-12-07T11:35:24;4.20;;;0.40;;
76566;SDS011;65428;53.194;6.132;2022-12-07T11:38:03;6.18;;;0.40;;
76566;SDS011;65428;53.194;6.132;2022-12-07T11:40:37;4.55;;;0.30;;
76566;SDS011;65428;53.194;6.132;2022-12-07T11:43:25;6.63;;;0.40;;
76566;SDS011;65428;53.194;6.132;2022-12-07T11:46:00;3.20;;;0.20;;
76566;SDS011;65428;53.194;6.132;2022-12-07T11:48:40;3.70;;;0.20;;
76566;SDS011;65428;53.194;6.132;2022-12-07T11:51:11;5.32;;;0.20;;
76566;SDS011;65428;53.194;6.132;2022-12-07T11:56:19;5.45;;;0.40;;
76566;SDS011;65428;53.194;6.132;2022-12-07T12:01:14;5.90;;;0.30;;
76566;SDS011;65428;53.194;6.132;2022-12-07T12:03:56;5.03;;;0.20;;
76566;SDS011;65428;53.194;6.132;2022-12-07T12:06:29;6.60;;;0.47;;
76566;SDS011;65428;53.194;6.132;2022-12-07T12:09:04;4.20;;;0.20;;
76566;SDS011;65428;53.194;6.132;2022-12-07T12:11:48;7.28;;;0.30;;
76566;SDS011;65428;53.194;6.132;2022-12-07T12:17:49;4.57;;;0.30;;
76566;SDS011;65428;53.194;6.132;2022-12-07T12:20:32;4.88;;;0.20;;
76566;SDS011;65428;53.194;6.132;2022-12-07T12:25:47;3.30;;;0.20;;
76566;SDS011;65428;53.194;6.132;2022-12-07T12:31:07;5.35;;;0.40;;
76566;SDS011;65428;53.194;6.132;2022-12-07T12:33:38;4.63;;;0.20;;
76566;SDS011;65428;53.194;6.132;2022-12-07T12:44:38;5.88;;;0.40;;
76566;SDS011;65428;53.194;6.132;2022-12-07T12:46:51;5.30;;;0.30;;
76566;SDS011;65428;53.194;6.132;2022-12-07T12:59:33;4.28;;;0.20;;
76566;SDS011;65428;53.194;6.132;2022-12-07T13:13:00;5.25;;;0.50;;
76566;SDS011;65428;53.194;6.132;2022-12-07T13:21:01;5.22;;;0.40;;
76566;SDS011;65428;53.194;6.132;2022-12-07T13:26:15;4.45;;;0.40;;
76566;SDS011;65428;53.194;6.132;2022-12-07T13:28:43;6.60;;;0.30;;
76566;SDS011;65428;53.194;6.132;2022-12-07T13:31:32;7.50;;;0.40;;
76566;SDS011;65428;53.194;6.132;2022-12-07T13:34:04;4.70;;;0.40;;
76566;SDS011;65428;53.194;6.132;2022-12-07T13:36:50;6.57;;;0.55;;
76566;SDS011;65428;53.194;6.132;2022-12-07T13:39:18;3.83;;;0.20;;
76566;SDS011;65428;53.194;6.132;2022-12-07T13:41:52;6.25;;;0.40;;
76566;SDS011;65428;53.194;6.132;2022-12-07T13:44:20;4.53;;;0.60;;
76566;SDS011;65428;53.194;6.132;2022-12-07T13:46:57;7.32;;;0.60;;
76566;SDS011;65428;53.194;6.132;2022-12-07T13:49:30;5.97;;;0.40;;
76566;SDS011;65428;53.194;6.132;2022-12-07T13:52:14;12.02;;;1.08;;
76566;SDS011;65428;53.194;6.132;2022-12-07T13:57:25;4.07;;;0.50;;
76566;SDS011;65428;53.194;6.132;2022-12-07T13:59:52;5.82;;;0.77;;
76566;SDS011;65428;53.194;6.132;2022-12-07T14:04:46;5.38;;;0.40;;
76566;SDS011;65428;53.194;6.132;2022-12-07T14:07:24;5.70;;;0.25;;
76566;SDS011;65428;53.194;6.132;2022-12-07T14:09:58;6.07;;;0.40;;
76566;SDS011;65428;53.194;6.132;2022-12-07T14:12:26;4.47;;;0.20;;
76566;SDS011;65428;53.194;6.132;2022-12-07T14:14:52;4.22;;;0.30;;
76566;SDS011;65428;53.194;6.132;2022-12-07T14:17:21;3.93;;;0.20;;
76566;SDS011;65428;53.194;6.132;2022-12-07T14:20:00;3.55;;;0.40;;
76566;SDS011;65428;53.194;6.132;2022-12-07T14:22:33;3.92;;;0.20;;
76566;SDS011;65428;53.194;6.132;2022-12-07T14:25:09;4.50;;;0.30;;
76566;SDS011;65428;53.194;6.132;2022-12-07T14:27:56;4.32;;;0.25;;
76566;SDS011;65428;53.194;6.132;2022-12-07T14:30:25;4.28;;;0.30;;
76566;SDS011;65428;53.194;6.132;2022-12-07T14:32:54;3.03;;;0.10;;
76566;SDS011;65428;53.194;6.132;2022-12-07T14:35:23;2.78;;;0.20;;
76566;SDS011;65428;53.194;6.132;2022-12-07T14:37:49;3.60;;;0.20;;
76566;SDS011;65428;53.194;6.132;2022-12-07T14:40:28;2.60;;;0.20;;
76566;SDS011;65428;53.194;6.132;2022-12-07T14:43:02;4.15;;;0.22;;
76566;SDS011;65428;53.194;6.132;2022-12-07T14:45:29;3.08;;;0.10;;
76566;SDS011;65428;53.194;6.132;2022-12-07T14:47:55;2.33;;;0.10;;
76566;SDS011;65428;53.194;6.132;2022-12-07T14:50:21;3.80;;;0.40;;
76566;SDS011;65428;53.194;6.132;2022-12-07T14:52:52;4.32;;;0.20;;
76566;SDS011;65428;53.194;6.132;2022-12-07T14:55:29;5.43;;;0.30;;
76566;SDS011;65428;53.194;6.132;2022-12-07T14:57:56;3.20;;;0.20;;
76566;SDS011;65428;53.194;6.132;2022-12-07T15:00:24;2.97;;;0.20;;
76566;SDS011;65428;53.194;6.132;2022-12-07T15:02:51;3.20;;;0.20;;
76566;SDS011;65428;53.194;6.132;2022-12-07T15:05:17;2.83;;;0.20;;
76566;SDS011;65428;53.194;6.132;2022-12-07T15:07:44;5.72;;;0.20;;
76566;SDS011;65428;53.194;6.132;2022-12-07T15:10:21;1.95;;;0.20;;
76566;SDS011;65428;53.194;6.132;2022-12-07T15:12:48;2.20;;;0.20;;
76566;SDS011;65428;53.194;6.132;2022-12-07T15:15:14;3.53;;;0.30;;
76566;SDS011;65428;53.194;6.132;2022-12-07T15:17:40;3.03;;;0.23;;
76566;SDS011;65428;53.194;6.132;2022-12-07T15:20:08;3.90;;;0.35;;
76566;SDS011;65428;53.194;6.132;2022-12-07T15:22:37;3.70;;;0.30;;
76566;SDS011;65428;53.194;6.132;2022-12-07T15:25:03;3.63;;;0.30;;
76566;SDS011;65428;53.194;6.132;2022-12-07T15:27:30;3.70;;;0.20;;
76566;SDS011;65428;53.194;6.132;2022-12-07T15:29:56;4.67;;;0.20;;
76566;SDS011;65428;53.194;6.132;2022-12-07T15:32:22;5.35;;;0.30;;
76566;SDS011;65428;53.194;6.132;2022-12-07T15:34:48;4.60;;;0.30;;
76566;SDS011;65428;53.194;6.132;2022-12-07T15:37:14;4.60;;;0.40;;
76566;SDS011;65428;53.194;6.132;2022-12-07T15:39:40;5.07;;;0.30;;
76566;SDS011;65428;53.194;6.132;2022-12-07T15:42:06;4.35;;;0.30;;
76566;SDS011;65428;53.194;6.132;2022-12-07T15:44:32;5.13;;;0.30;;
76566;SDS011;65428;53.194;6.132;2022-12-07T15:47:16;3.95;;;0.30;;
76566;SDS011;65428;53.194;6.132;2022-12-07T15:49:42;4.18;;;0.60;;
76566;SDS011;65428;53.194;6.132;2022-12-07T15:52:08;5.10;;;0.50;;
76566;SDS011;65428;53.194;6.132;2022-12-07T15:54:34;5.57;;;0.50;;
76566;SDS011;65428;53.194;6.132;2022-12-07T15:56:59;3.75;;;0.30;;
76566;SDS011;65428;53.194;6.132;2022-12-07T15:59:26;5.57;;;0.60;;
76566;SDS011;65428;53.194;6.132;2022-12-07T16:01:53;5.63;;;0.30;;
76566;SDS011;65428;53.194;6.132;2022-12-07T16:04:19;6.97;;;0.45;;
76566;SDS011;65428;53.194;6.132;2022-12-07T16:06:45;5.68;;;0.38;;
76566;SDS011;65428;53.194;6.132;2022-12-07T16:09:11;3.33;;;0.20;;
76566;SDS011;65428;53.194;6.132;2022-12-07T16:11:37;4.32;;;0.20;;
76566;SDS011;65428;53.194;6.132;2022-12-07T16:14:02;3.03;;;0.20;;
76566;SDS011;65428;53.194;6.132;2022-12-07T16:16:28;3.77;;;0.20;;
76566;SDS011;65428;53.194;6.132;2022-12-07T16:18:54;3.92;;;0.20;;
76566;SDS011;65428;53.194;6.132;2022-12-07T16:21:20;5.95;;;0.20;;
76566;SDS011;65428;53.194;6.132;2022-12-07T16:23:46;2.20;;;0.10;;
76566;SDS011;65428;53.194;6.132;2022-12-07T16:26:15;3.85;;;0.10;;
76566;SDS011;65428;53.194;6.132;2022-12-07T16:28:42;3.28;;;0.47;;
76566;SDS011;65428;53.194;6.132;2022-12-07T16:31:10;2.20;;;0.10;;
76566;SDS011;65428;53.194;6.132;2022-12-07T16:33:37;3.50;;;0.25;;
76566;SDS011;65428;53.194;6.132;2022-12-07T16:36:05;3.05;;;0.13;;
76566;SDS011;65428;53.194;6.132;2022-12-07T16:38:32;3.80;;;0.50;;
76566;SDS011;65428;53.194;6.132;2022-12-07T16:40:58;2.17;;;0.20;;
76566;SDS011;65428;53.194;6.132;2022-12-07T16:43:23;3.73;;;0.23;;
76566;SDS011;65428;53.194;6.132;2022-12-07T16:45:49;3.88;;;0.20;;
76566;SDS011;65428;53.194;6.132;2022-12-07T16:48:15;3.83;;;0.50;;
76566;SDS011;65428;53.194;6.132;2022-12-07T16:50:42;5.57;;;0.30;;
76566;SDS011;65428;53.194;6.132;2022-12-07T16:53:09;4.00;;;0.40;;
76566;SDS011;65428;53.194;6.132;2022-12-07T16:55:39;3.45;;;0.20;;
76566;SDS011;65428;53.194;6.132;2022-12-07T16:58:05;3.67;;;0.30;;
76566;SDS011;65428;53.194;6.132;2022-12-07T17:00:32;4.50;;;0.30;;
76566;SDS011;65428;53.194;6.132;2022-12-07T17:02:58;4.50;;;0.67;;
76566;SDS011;65428;53.194;6.132;2022-12-07T17:05:24;6.17;;;0.60;;
76566;SDS011;65428;53.194;6.132;2022-12-07T17:07:52;5.18;;;0.40;;
76566;SDS011;65428;53.194;6.132;2022-12-07T17:10:18;4.97;;;0.55;;